sensor_id;sensor_type;location;lat;lon;timestamp;pressure;altitude;pressure_sealevel;temperature;humidity
39301;BME280;25019;42.626;23.380;2022-08-04T00:00:07;94581.59;;;16.45;100.00
39301;BME280;25019;42.626;23.380;2022-08-04T00:06:03;94604.28;;;16.58;100.00
39301;BME280;25019;42.626;23.380;2022-08-04T00:08:40;94529.88;;;16.10;100.00
39301;BME280;25019;42.626;23.380;2022-08-04T00:11:09;94608.78;;;16.63;100.00
39301;BME280;25019;42.626;23.380;2022-08-04T00:13:42;94600.19;;;16.66;100.00
39301;BME280;25019;42.626;23.380;2022-08-04T00:16:11;94603.69;;;16.67;100.00
39301;BME280;25019;42.626;23.380;2022-08-04T00:18:44;94599.66;;;16.64;100.00
39301;BME280;25019;42.626;23.380;2022-08-04T00:21:14;94590.88;;;16.58;100.00
39301;BME280;25019;42.626;23.380;2022-08-04T00:23:42;94594.34;;;16.59;100.00
39301;BME280;25019;42.626;23.380;2022-08-04T00:26:09;94595.00;;;16.45;100.00
39301;BME280;25019;42.626;23.380;2022-08-04T00:28:35;94490.25;;;15.67;100.00
39301;BME280;25019;42.626;23.380;2022-08-04T00:31:09;94537.72;;;16.01;100.00
39301;BME280;25019;42.626;23.380;2022-08-04T00:33:36;94588.94;;;16.35;100.00
39301;BME280;25019;42.626;23.380;2022-08-04T00:36:02;94583.28;;;16.36;100.00
39301;BME280;25019;42.626;23.380;2022-08-04T00:38:28;94590.75;;;16.39;100.00
39301;BME280;25019;42.626;23.380;2022-08-04T00:44:02;94590.19;;;16.42;100.00
39301;BME280;25019;42.626;23.380;2022-08-04T00:51:59;94600.19;;;16.31;100.00
39301;BME280;25019;42.626;23.380;2022-08-04T00:54:57;94602.16;;;16.21;100.00
39301;BME280;25019;42.626;23.380;2022-08-04T01:00:19;94605.63;;;16.21;100.00
39301;BME280;25019;42.626;23.380;2022-08-04T01:19:59;94610.53;;;16.09;100.00
39301;BME280;25019;42.626;23.380;2022-08-04T01:26:01;94610.81;;;16.07;100.00
39301;BME280;25019;42.626;23.380;2022-08-04T01:29:01;94613.25;;;16.03;100.00
39301;BME280;25019;42.626;23.380;2022-08-04T01:34:18;94593.72;;;15.98;100.00
39301;BME280;25019;42.626;23.380;2022-08-04T01:36:48;94595.88;;;15.96;100.00
39301;BME280;25019;42.626;23.380;2022-08-04T01:39:16;94602.81;;;16.02;100.00
39301;BME280;25019;42.626;23.380;2022-08-04T01:42:03;94602.28;;;16.00;100.00
39301;BME280;25019;42.626;23.380;2022-08-04T01:44:30;94604.78;;;15.86;100.00
39301;BME280;25019;42.626;23.380;2022-08-04T01:46:56;94534.91;;;15.22;100.00
39301;BME280;25019;42.626;23.380;2022-08-04T01:49:28;94613.94;;;15.64;100.00
39301;BME280;25019;42.626;23.380;2022-08-04T01:51:54;94608.34;;;15.66;100.00
39301;BME280;25019;42.626;23.380;2022-08-04T01:54:20;94596.53;;;15.72;100.00
39301;BME280;25019;42.626;23.380;2022-08-04T01:56:50;94600.22;;;15.76;100.00
39301;BME280;25019;42.626;23.380;2022-08-04T01:59:19;94598.38;;;15.77;100.00
39301;BME280;25019;42.626;23.380;2022-08-04T02:01:46;94598.91;;;15.79;100.00
39301;BME280;25019;42.626;23.380;2022-08-04T02:04:16;94587.94;;;15.75;100.00
39301;BME280;25019;42.626;23.380;2022-08-04T02:12:02;94550.34;;;15.46;100.00
39301;BME280;25019;42.626;23.380;2022-08-04T02:14:36;94590.88;;;15.73;100.00
39301;BME280;25019;42.626;23.380;2022-08-04T02:17:12;94590.66;;;15.70;100.00
39301;BME280;25019;42.626;23.380;2022-08-04T02:20:06;94611.22;;;15.75;100.00
39301;BME280;25019;42.626;23.380;2022-08-04T02:22:36;94577.09;;;15.46;100.00
39301;BME280;25019;42.626;23.380;2022-08-04T02:25:08;94562.13;;;15.39;100.00
39301;BME280;25019;42.626;23.380;2022-08-04T02:30:18;94586.16;;;15.55;100.00
39301;BME280;25019;42.626;23.380;2022-08-04T02:32:45;94602.78;;;15.52;100.00
39301;BME280;25019;42.626;23.380;2022-08-04T02:35:13;94609.22;;;15.46;100.00
39301;BME280;25019;42.626;23.380;2022-08-04T02:37:46;94610.78;;;15.52;100.00
39301;BME280;25019;42.626;23.380;2022-08-04T02:40:12;94598.19;;;15.52;100.00
39301;BME280;25019;42.626;23.380;2022-08-04T02:42:42;94584.88;;;15.42;100.00
39301;BME280;25019;42.626;23.380;2022-08-04T02:45:08;94585.09;;;15.51;100.00
39301;BME280;25019;42.626;23.380;2022-08-04T02:47:36;94607.56;;;15.60;100.00
39301;BME280;25019;42.626;23.380;2022-08-04T02:50:04;94600.59;;;15.59;100.00
39301;BME280;25019;42.626;23.380;2022-08-04T02:52:31;94610.19;;;15.65;100.00
39301;BME280;25019;42.626;23.380;2022-08-04T02:55:00;94530.41;;;15.17;100.00
39301;BME280;25019;42.626;23.380;2022-08-04T02:57:29;94608.84;;;15.68;100.00
39301;BME280;25019;42.626;23.380;2022-08-04T03:00:08;94604.56;;;15.67;100.00
39301;BME280;25019;42.626;23.380;2022-08-04T03:17:30;94616.38;;;15.66;100.00
39301;BME280;25019;42.626;23.380;2022-08-04T03:25:45;94557.91;;;15.28;100.00
39301;BME280;25019;42.626;23.380;2022-08-04T03:37:18;94615.63;;;15.50;100.00
39301;BME280;25019;42.626;23.380;2022-08-04T03:42:43;94618.63;;;15.38;100.00
39301;BME280;25019;42.626;23.380;2022-08-04T04:12:06;94612.47;;;17.75;100.00
39301;BME280;25019;42.626;23.380;2022-08-04T04:26:09;94612.19;;;20.62;79.28
39301;BME280;25019;42.626;23.380;2022-08-04T04:59:10;94603.47;;;22.27;66.42
39301;BME280;25019;42.626;23.380;2022-08-04T05:04:28;94623.91;;;21.66;70.51
39301;BME280;25019;42.626;23.380;2022-08-04T05:07:05;94621.41;;;21.47;72.48
39301;BME280;25019;42.626;23.380;2022-08-04T05:15:45;94623.03;;;21.57;71.98
39301;BME280;25019;42.626;23.380;2022-08-04T05:18:17;94595.84;;;21.13;72.72
39301;BME280;25019;42.626;23.380;2022-08-04T05:20:46;94583.00;;;20.87;74.37
39301;BME280;25019;42.626;23.380;2022-08-04T05:23:18;94642.56;;;21.14;75.34
39301;BME280;25019;42.626;23.380;2022-08-04T05:25:58;94632.13;;;20.98;76.28
39301;BME280;25019;42.626;23.380;2022-08-04T05:31:00;94621.28;;;21.21;75.56
39301;BME280;25019;42.626;23.380;2022-08-04T05:33:32;94633.84;;;21.97;73.13
39301;BME280;25019;42.626;23.380;2022-08-04T05:36:02;94550.19;;;21.34;72.20
39301;BME280;25019;42.626;23.380;2022-08-04T05:38:39;94632.25;;;21.88;71.86
39301;BME280;25019;42.626;23.380;2022-08-04T05:41:09;94524.63;;;21.32;70.92
39301;BME280;25019;42.626;23.380;2022-08-04T05:43:39;94636.31;;;22.69;68.90
39301;BME280;25019;42.626;23.380;2022-08-04T05:46:08;94638.75;;;23.18;66.52
39301;BME280;25019;42.626;23.380;2022-08-04T05:48:36;94644.31;;;23.40;65.80
39301;BME280;25019;42.626;23.380;2022-08-04T05:51:04;94647.84;;;23.79;63.90
39301;BME280;25019;42.626;23.380;2022-08-04T05:53:33;94647.25;;;23.64;64.82
39301;BME280;25019;42.626;23.380;2022-08-04T05:56:00;94649.06;;;24.20;62.37
39301;BME280;25019;42.626;23.380;2022-08-04T05:58:28;94572.84;;;23.83;61.43
39301;BME280;25019;42.626;23.380;2022-08-04T06:00:56;94622.00;;;24.75;59.24
39301;BME280;25019;42.626;23.380;2022-08-04T06:03:22;94581.88;;;24.93;58.37
39301;BME280;25019;42.626;23.380;2022-08-04T06:05:50;94592.03;;;25.30;57.52
39301;BME280;25019;42.626;23.380;2022-08-04T06:08:17;94630.84;;;25.89;56.54
39301;BME280;25019;42.626;23.380;2022-08-04T06:10:43;94637.75;;;26.11;56.92
39301;BME280;25019;42.626;23.380;2022-08-04T06:13:16;94637.81;;;26.52;55.82
39301;BME280;25019;42.626;23.380;2022-08-04T06:15:43;94624.47;;;26.75;54.56
39301;BME280;25019;42.626;23.380;2022-08-04T06:18:12;94634.47;;;27.00;52.43
39301;BME280;25019;42.626;23.380;2022-08-04T06:20:40;94542.75;;;26.47;52.29
39301;BME280;25019;42.626;23.380;2022-08-04T06:23:09;94618.63;;;27.34;51.61
39301;BME280;25019;42.626;23.380;2022-08-04T06:25:39;94619.94;;;27.40;51.53
39301;BME280;25019;42.626;23.380;2022-08-04T06:28:06;94574.22;;;27.17;50.96
39301;BME280;25019;42.626;23.380;2022-08-04T06:30:33;94527.94;;;26.60;51.33
39301;BME280;25019;42.626;23.380;2022-08-04T06:33:00;94629.81;;;27.00;50.73
39301;BME280;25019;42.626;23.380;2022-08-04T06:35:28;94606.19;;;26.35;51.99
39301;BME280;25019;42.626;23.380;2022-08-04T06:37:56;94628.56;;;26.28;53.38
39301;BME280;25019;42.626;23.380;2022-08-04T06:40:24;94601.03;;;25.68;54.28
39301;BME280;25019;42.626;23.380;2022-08-04T06:42:50;94648.75;;;25.78;55.03
39301;BME280;25019;42.626;23.380;2022-08-04T06:45:18;94588.94;;;25.07;56.74
39301;BME280;25019;42.626;23.380;2022-08-04T06:47:46;94634.81;;;24.87;58.39
39301;BME280;25019;42.626;23.380;2022-08-04T06:50:13;94572.59;;;24.61;58.75
39301;BME280;25019;42.626;23.380;2022-08-04T06:52:43;94647.75;;;24.90;58.85
39301;BME280;25019;42.626;23.380;2022-08-04T06:55:08;94650.19;;;24.83;58.50
39301;BME280;25019;42.626;23.380;2022-08-04T06:57:35;94652.03;;;24.70;59.11
39301;BME280;25019;42.626;23.380;2022-08-04T07:00:07;94652.66;;;24.54;59.88
39301;BME280;25019;42.626;23.380;2022-08-04T07:02:45;94631.66;;;24.43;59.35
39301;BME280;25019;42.626;23.380;2022-08-04T07:05:12;94627.88;;;24.56;59.30
39301;BME280;25019;42.626;23.380;2022-08-04T07:07:39;94636.91;;;24.48;59.92
39301;BME280;25019;42.626;23.380;2022-08-04T07:10:06;94661.19;;;24.87;59.78
39301;BME280;25019;42.626;23.380;2022-08-04T07:12:33;94604.63;;;24.46;59.77
39301;BME280;25019;42.626;23.380;2022-08-04T07:14:59;94638.88;;;24.60;59.72
39301;BME280;25019;42.626;23.380;2022-08-04T07:17:27;94631.53;;;24.81;59.51
39301;BME280;25019;42.626;23.380;2022-08-04T07:19:53;94621.69;;;24.89;59.67
39301;BME280;25019;42.626;23.380;2022-08-04T07:22:20;94641.91;;;25.13;59.27
39301;BME280;25019;42.626;23.380;2022-08-04T07:24:45;94552.44;;;24.07;60.51
39301;BME280;25019;42.626;23.380;2022-08-04T07:27:11;94641.88;;;24.67;61.09
39301;BME280;25019;42.626;23.380;2022-08-04T07:29:37;94543.88;;;23.96;61.67
39301;BME280;25019;42.626;23.380;2022-08-04T07:32:05;94652.53;;;24.72;60.88
39301;BME280;25019;42.626;23.380;2022-08-04T07:34:31;94595.28;;;24.56;60.59
39301;BME280;25019;42.626;23.380;2022-08-04T07:36:59;94630.47;;;25.07;59.29
39301;BME280;25019;42.626;23.380;2022-08-04T07:39:28;94632.88;;;25.21;59.81
39301;BME280;25019;42.626;23.380;2022-08-04T07:41:58;94608.31;;;24.72;60.46
39301;BME280;25019;42.626;23.380;2022-08-04T07:44:28;94640.13;;;24.83;60.50
39301;BME280;25019;42.626;23.380;2022-08-04T07:46:55;94620.94;;;25.01;59.83
39301;BME280;25019;42.626;23.380;2022-08-04T07:49:20;94638.38;;;25.34;59.84
39301;BME280;25019;42.626;23.380;2022-08-04T07:51:46;94630.53;;;25.32;59.85
39301;BME280;25019;42.626;23.380;2022-08-04T07:54:12;94562.50;;;24.82;59.86
39301;BME280;25019;42.626;23.380;2022-08-04T07:56:40;94641.66;;;25.39;59.06
39301;BME280;25019;42.626;23.380;2022-08-04T07:59:06;94546.25;;;25.07;58.72
39301;BME280;25019;42.626;23.380;2022-08-04T08:01:34;94634.25;;;25.73;57.94
39301;BME280;25019;42.626;23.380;2022-08-04T08:04:01;94617.59;;;25.63;58.29
39301;BME280;25019;42.626;23.380;2022-08-04T08:06:28;94632.19;;;25.83;57.69
39301;BME280;25019;42.626;23.380;2022-08-04T08:09:01;94626.06;;;25.98;56.55
39301;BME280;25019;42.626;23.380;2022-08-04T08:11:31;94630.06;;;26.13;57.15
39301;BME280;25019;42.626;23.380;2022-08-04T08:13:56;94629.94;;;25.97;56.51
39301;BME280;25019;42.626;23.380;2022-08-04T08:16:23;94632.53;;;25.69;57.23
39301;BME280;25019;42.626;23.380;2022-08-04T08:18:49;94622.44;;;25.57;57.78
39301;BME280;25019;42.626;23.380;2022-08-04T08:21:18;94619.66;;;25.32;58.92
39301;BME280;25019;42.626;23.380;2022-08-04T08:23:44;94584.97;;;25.04;58.38
39301;BME280;25019;42.626;23.380;2022-08-04T08:26:10;94617.03;;;25.23;59.20
39301;BME280;25019;42.626;23.380;2022-08-04T08:28:36;94635.28;;;25.23;57.12
39301;BME280;25019;42.626;23.380;2022-08-04T08:31:01;94631.34;;;24.99;58.33
39301;BME280;25019;42.626;23.380;2022-08-04T08:33:27;94571.88;;;24.51;59.27
39301;BME280;25019;42.626;23.380;2022-08-04T08:38:42;94629.00;;;25.56;56.92
39301;BME280;25019;42.626;23.380;2022-08-04T08:44:25;94630.97;;;26.17;54.73
39301;BME280;25019;42.626;23.380;2022-08-04T08:56:01;94626.47;;;27.67;46.04
39301;BME280;25019;42.626;23.380;2022-08-04T09:03:50;94624.00;;;27.94;45.62
39301;BME280;25019;42.626;23.380;2022-08-04T09:09:52;94622.31;;;28.22;46.53
39301;BME280;25019;42.626;23.380;2022-08-04T09:12:14;94615.50;;;28.32;45.33
39301;BME280;25019;42.626;23.380;2022-08-04T09:15:02;94615.91;;;28.34;44.44
39301;BME280;25019;42.626;23.380;2022-08-04T09:17:36;94575.88;;;28.22;44.39
39301;BME280;25019;42.626;23.380;2022-08-04T09:20:12;94600.34;;;28.74;42.91
39301;BME280;25019;42.626;23.380;2022-08-04T09:22:49;94591.44;;;28.96;42.90
39301;BME280;25019;42.626;23.380;2022-08-04T09:27:58;94594.00;;;29.32;41.10
39301;BME280;25019;42.626;23.380;2022-08-04T09:30:36;94588.78;;;29.23;39.56
39301;BME280;25019;42.626;23.380;2022-08-04T09:33:17;94593.97;;;29.28;39.66
39301;BME280;25019;42.626;23.380;2022-08-04T09:38:41;94601.53;;;29.15;40.54
39301;BME280;25019;42.626;23.380;2022-08-04T09:46:27;94576.13;;;28.33;38.29
39301;BME280;25019;42.626;23.380;2022-08-04T09:49:01;94572.88;;;28.47;39.11
39301;BME280;25019;42.626;23.380;2022-08-04T09:54:24;94601.00;;;28.87;38.77
39301;BME280;25019;42.626;23.380;2022-08-04T09:57:05;94602.28;;;28.53;39.62
39301;BME280;25019;42.626;23.380;2022-08-04T09:59:43;94541.88;;;28.19;40.12
39301;BME280;25019;42.626;23.380;2022-08-04T10:02:12;94600.53;;;28.81;39.95
39301;BME280;25019;42.626;23.380;2022-08-04T10:04:41;94596.06;;;29.15;38.15
39301;BME280;25019;42.626;23.380;2022-08-04T10:07:27;94583.34;;;29.47;37.45
39301;BME280;25019;42.626;23.380;2022-08-04T10:10:19;94582.78;;;29.60;37.52
39301;BME280;25019;42.626;23.380;2022-08-04T10:13:14;94540.84;;;29.29;37.11
39301;BME280;25019;42.626;23.380;2022-08-04T10:16:47;94582.09;;;29.90;37.12
39301;BME280;25019;42.626;23.380;2022-08-04T10:24:52;94584.63;;;30.03;35.23
39301;BME280;25019;42.626;23.380;2022-08-04T10:27:29;94578.84;;;30.08;35.07
39301;BME280;25019;42.626;23.380;2022-08-04T10:30:03;94575.91;;;30.24;34.92
39301;BME280;25019;42.626;23.380;2022-08-04T10:32:49;94579.75;;;30.50;34.91
39301;BME280;25019;42.626;23.380;2022-08-04T10:35:21;94573.50;;;30.49;35.02
39301;BME280;25019;42.626;23.380;2022-08-04T10:40:22;94576.19;;;30.15;34.24
39301;BME280;25019;42.626;23.380;2022-08-04T10:46:38;94572.00;;;29.71;32.19
39301;BME280;25019;42.626;23.380;2022-08-04T10:49:20;94576.59;;;29.40;33.64
39301;BME280;25019;42.626;23.380;2022-08-04T11:00:08;94573.38;;;28.13;34.58
39301;BME280;25019;42.626;23.380;2022-08-04T11:03:06;94495.50;;;27.84;34.53
39301;BME280;25019;42.626;23.380;2022-08-04T11:08:15;94560.97;;;28.55;36.41
39301;BME280;25019;42.626;23.380;2022-08-04T11:10:47;94562.31;;;28.45;36.01
39301;BME280;25019;42.626;23.380;2022-08-04T11:13:16;94534.66;;;28.27;35.95
39301;BME280;25019;42.626;23.380;2022-08-04T11:15:50;94496.00;;;28.25;35.53
39301;BME280;25019;42.626;23.380;2022-08-04T11:18:57;94556.06;;;28.45;32.09
39301;BME280;25019;42.626;23.380;2022-08-04T11:21:32;94536.84;;;28.21;31.01
39301;BME280;25019;42.626;23.380;2022-08-04T11:24:02;94420.31;;;27.66;32.26
39301;BME280;25019;42.626;23.380;2022-08-04T11:26:39;94560.97;;;28.75;32.99
39301;BME280;25019;42.626;23.380;2022-08-04T11:29:16;94532.03;;;28.93;31.52
39301;BME280;25019;42.626;23.380;2022-08-04T11:31:48;94491.69;;;28.87;31.85
39301;BME280;25019;42.626;23.380;2022-08-04T11:34:25;94487.06;;;29.14;32.15
39301;BME280;25019;42.626;23.380;2022-08-04T11:39:35;94534.59;;;29.79;31.83
39301;BME280;25019;42.626;23.380;2022-08-04T11:45:06;94511.84;;;30.02;30.80
39301;BME280;25019;42.626;23.380;2022-08-04T11:47:45;94408.47;;;29.61;29.68
39301;BME280;25019;42.626;23.380;2022-08-04T11:52:52;94522.97;;;30.77;28.76
39301;BME280;25019;42.626;23.380;2022-08-04T11:55:24;94507.09;;;30.60;29.55
39301;BME280;25019;42.626;23.380;2022-08-04T11:57:51;94476.63;;;30.31;28.24
39301;BME280;25019;42.626;23.380;2022-08-04T12:00:18;94432.03;;;30.00;29.56
39301;BME280;25019;42.626;23.380;2022-08-04T12:02:49;94458.03;;;30.13;29.40
39301;BME280;25019;42.626;23.380;2022-08-04T12:05:24;94473.75;;;30.20;29.78
39301;BME280;25019;42.626;23.380;2022-08-04T12:08:07;94496.19;;;30.33;29.94
39301;BME280;25019;42.626;23.380;2022-08-04T12:10:50;94503.78;;;30.13;30.72
39301;BME280;25019;42.626;23.380;2022-08-04T12:13:24;94517.25;;;30.25;30.87
39301;BME280;25019;42.626;23.380;2022-08-04T12:16:16;94518.50;;;30.31;30.51
39301;BME280;25019;42.626;23.380;2022-08-04T12:18:52;94519.13;;;30.17;30.26
39301;BME280;25019;42.626;23.380;2022-08-04T12:21:41;94513.88;;;30.39;29.88
39301;BME280;25019;42.626;23.380;2022-08-04T12:24:14;94486.78;;;30.30;29.54
39301;BME280;25019;42.626;23.380;2022-08-04T12:26:49;94445.22;;;29.90;30.77
39301;BME280;25019;42.626;23.380;2022-08-04T12:29:17;94514.53;;;30.29;30.27
39301;BME280;25019;42.626;23.380;2022-08-04T12:31:51;94426.09;;;29.94;30.07
39301;BME280;25019;42.626;23.380;2022-08-04T12:34:31;94320.16;;;29.03;30.07
39301;BME280;25019;42.626;23.380;2022-08-04T12:39:44;94516.00;;;30.53;30.19
39301;BME280;25019;42.626;23.380;2022-08-04T12:44:44;94503.22;;;30.00;31.08
39301;BME280;25019;42.626;23.380;2022-08-04T12:47:14;94499.06;;;30.10;31.21
39301;BME280;25019;42.626;23.380;2022-08-04T12:49:43;94393.13;;;29.53;30.28
39301;BME280;25019;42.626;23.380;2022-08-04T12:52:12;94466.69;;;29.88;30.90
39301;BME280;25019;42.626;23.380;2022-08-04T12:54:40;94424.75;;;29.50;30.45
39301;BME280;25019;42.626;23.380;2022-08-04T12:57:09;94489.38;;;29.89;31.24
39301;BME280;25019;42.626;23.380;2022-08-04T13:02:07;94496.69;;;30.08;30.67
39301;BME280;25019;42.626;23.380;2022-08-04T13:04:37;94370.97;;;29.35;30.71
39301;BME280;25019;42.626;23.380;2022-08-04T13:07:10;94494.94;;;30.27;30.39
39301;BME280;25019;42.626;23.380;2022-08-04T13:09:39;94492.50;;;30.18;29.96
39301;BME280;25019;42.626;23.380;2022-08-04T13:12:17;94475.72;;;30.19;30.66
39301;BME280;25019;42.626;23.380;2022-08-04T13:14:47;94480.06;;;30.24;30.71
39301;BME280;25019;42.626;23.380;2022-08-04T13:17:13;94491.97;;;30.05;30.24
39301;BME280;25019;42.626;23.380;2022-08-04T13:19:45;94472.81;;;29.78;31.32
39301;BME280;25019;42.626;23.380;2022-08-04T13:22:12;94498.25;;;29.79;31.48
39301;BME280;25019;42.626;23.380;2022-08-04T13:24:41;94468.03;;;29.44;31.99
39301;BME280;25019;42.626;23.380;2022-08-04T13:27:09;94496.28;;;29.52;32.12
39301;BME280;25019;42.626;23.380;2022-08-04T13:29:40;94487.81;;;29.61;31.12
39301;BME280;25019;42.626;23.380;2022-08-04T13:32:08;94453.81;;;29.35;31.30
39301;BME280;25019;42.626;23.380;2022-08-04T13:34:34;94470.47;;;29.50;31.34
39301;BME280;25019;42.626;23.380;2022-08-04T13:37:02;94480.75;;;29.60;31.03
39301;BME280;25019;42.626;23.380;2022-08-04T13:39:28;94405.44;;;29.12;31.52
39301;BME280;25019;42.626;23.380;2022-08-04T13:41:57;94476.19;;;29.68;32.01
39301;BME280;25019;42.626;23.380;2022-08-04T13:44:28;94357.53;;;28.95;30.95
39301;BME280;25019;42.626;23.380;2022-08-04T13:47:41;94460.00;;;29.55;30.97
39301;BME280;25019;42.626;23.380;2022-08-04T13:50:12;94466.19;;;29.52;30.80
39301;BME280;25019;42.626;23.380;2022-08-04T13:52:40;94391.72;;;29.09;30.50
39301;BME280;25019;42.626;23.380;2022-08-04T13:55:16;94440.38;;;29.50;30.69
39301;BME280;25019;42.626;23.380;2022-08-04T13:57:44;94444.97;;;29.72;31.30
39301;BME280;25019;42.626;23.380;2022-08-04T14:00:11;94384.94;;;29.53;31.15
39301;BME280;25019;42.626;23.380;2022-08-04T14:02:55;94462.34;;;30.14;30.85
39301;BME280;25019;42.626;23.380;2022-08-04T14:05:27;94441.75;;;29.94;31.38
39301;BME280;25019;42.626;23.380;2022-08-04T14:07:56;94465.22;;;29.95;31.85
39301;BME280;25019;42.626;23.380;2022-08-04T14:10:23;94444.81;;;29.88;31.59
39301;BME280;25019;42.626;23.380;2022-08-04T14:12:50;94449.28;;;30.00;31.59
39301;BME280;25019;42.626;23.380;2022-08-04T14:15:36;94451.31;;;30.07;31.78
39301;BME280;25019;42.626;23.380;2022-08-04T14:18:16;94453.72;;;30.12;30.60
39301;BME280;25019;42.626;23.380;2022-08-04T14:21:07;94440.00;;;30.09;30.48
39301;BME280;25019;42.626;23.380;2022-08-04T14:23:41;94437.53;;;30.00;31.13
39301;BME280;25019;42.626;23.380;2022-08-04T14:28:53;94405.88;;;29.72;31.26
39301;BME280;25019;42.626;23.380;2022-08-04T14:31:23;94434.00;;;29.69;31.92
39301;BME280;25019;42.626;23.380;2022-08-04T14:33:51;94429.75;;;29.44;32.14
39301;BME280;25019;42.626;23.380;2022-08-04T14:36:18;94441.53;;;29.49;32.45
39301;BME280;25019;42.626;23.380;2022-08-04T14:38:53;94443.97;;;29.54;32.01
39301;BME280;25019;42.626;23.380;2022-08-04T14:41:30;94436.63;;;29.35;32.41
39301;BME280;25019;42.626;23.380;2022-08-04T14:44:08;94447.34;;;29.47;32.89
39301;BME280;25019;42.626;23.380;2022-08-04T14:46:35;94446.19;;;29.48;33.10
39301;BME280;25019;42.626;23.380;2022-08-04T14:49:13;94377.25;;;29.08;33.32
39301;BME280;25019;42.626;23.380;2022-08-04T14:51:41;94431.00;;;29.51;33.14
39301;BME280;25019;42.626;23.380;2022-08-04T14:54:09;94422.00;;;29.23;33.24
39301;BME280;25019;42.626;23.380;2022-08-04T14:56:37;94440.13;;;29.35;33.40
39301;BME280;25019;42.626;23.380;2022-08-04T14:59:07;94319.06;;;28.58;33.32
39301;BME280;25019;42.626;23.380;2022-08-04T15:01:34;94442.44;;;29.33;33.87
39301;BME280;25019;42.626;23.380;2022-08-04T15:04:02;94390.44;;;29.03;33.14
39301;BME280;25019;42.626;23.380;2022-08-04T15:06:29;94434.53;;;29.28;32.10
39301;BME280;25019;42.626;23.380;2022-08-04T15:08:58;94429.91;;;29.32;32.69
39301;BME280;25019;42.626;23.380;2022-08-04T15:11:25;94357.25;;;28.77;32.55
39301;BME280;25019;42.626;23.380;2022-08-04T15:13:52;94437.94;;;29.18;31.50
39301;BME280;25019;42.626;23.380;2022-08-04T15:16:19;94430.28;;;29.04;30.34
39301;BME280;25019;42.626;23.380;2022-08-04T15:18:44;94387.69;;;28.76;30.72
39301;BME280;25019;42.626;23.380;2022-08-04T15:21:11;94434.94;;;29.03;30.74
39301;BME280;25019;42.626;23.380;2022-08-04T15:23:38;94426.72;;;28.99;31.32
39301;BME280;25019;42.626;23.380;2022-08-04T15:26:06;94433.56;;;28.90;30.60
39301;BME280;25019;42.626;23.380;2022-08-04T15:28:34;94425.72;;;28.88;31.07
39301;BME280;25019;42.626;23.380;2022-08-04T15:31:03;94349.53;;;28.36;31.12
39301;BME280;25019;42.626;23.380;2022-08-04T15:33:30;94428.78;;;28.83;31.01
39301;BME280;25019;42.626;23.380;2022-08-04T15:36:15;94400.00;;;28.66;31.52
39301;BME280;25019;42.626;23.380;2022-08-04T15:39:10;94426.88;;;28.64;31.91
39301;BME280;25019;42.626;23.380;2022-08-04T15:47:14;94414.53;;;28.50;32.92
39301;BME280;25019;42.626;23.380;2022-08-04T15:49:41;94424.88;;;28.61;33.14
39301;BME280;25019;42.626;23.380;2022-08-04T15:52:12;94422.19;;;28.64;32.64
39301;BME280;25019;42.626;23.380;2022-08-04T15:54:40;94414.28;;;28.59;33.31
39301;BME280;25019;42.626;23.380;2022-08-04T15:57:06;94424.78;;;28.77;32.33
39301;BME280;25019;42.626;23.380;2022-08-04T16:00:03;94426.50;;;28.85;32.47
39301;BME280;25019;42.626;23.380;2022-08-04T16:02:41;94408.88;;;28.82;33.38
39301;BME280;25019;42.626;23.380;2022-08-04T16:08:16;94332.56;;;28.47;32.90
39301;BME280;25019;42.626;23.380;2022-08-04T16:10:47;94378.22;;;28.73;32.80
39301;BME280;25019;42.626;23.380;2022-08-04T16:13:20;94346.19;;;28.47;33.42
39301;BME280;25019;42.626;23.380;2022-08-04T16:15:50;94323.63;;;28.26;33.21
39301;BME280;25019;42.626;23.380;2022-08-04T16:20:54;94371.19;;;28.72;33.04
39301;BME280;25019;42.626;23.380;2022-08-04T16:23:45;94428.25;;;28.97;33.40
39301;BME280;25019;42.626;23.380;2022-08-04T16:26:12;94413.66;;;28.89;33.24
39301;BME280;25019;42.626;23.380;2022-08-04T16:28:41;94359.13;;;28.50;33.46
39301;BME280;25019;42.626;23.380;2022-08-04T16:31:09;94406.19;;;28.86;33.27
39301;BME280;25019;42.626;23.380;2022-08-04T16:33:36;94376.59;;;28.68;32.84
39301;BME280;25019;42.626;23.380;2022-08-04T16:36:06;94352.88;;;28.49;32.51
39301;BME280;25019;42.626;23.380;2022-08-04T16:38:32;94377.56;;;28.56;33.12
39301;BME280;25019;42.626;23.380;2022-08-04T16:41:40;94354.41;;;28.47;33.68
39301;BME280;25019;42.626;23.380;2022-08-04T16:44:31;94423.00;;;28.88;34.18
39301;BME280;25019;42.626;23.380;2022-08-04T16:46:57;94404.66;;;28.65;34.01
39301;BME280;25019;42.626;23.380;2022-08-04T16:49:25;94325.03;;;27.97;34.30
39301;BME280;25019;42.626;23.380;2022-08-04T16:51:51;94412.47;;;28.44;34.78
39301;BME280;25019;42.626;23.380;2022-08-04T16:54:17;94376.16;;;28.00;34.71
39301;BME280;25019;42.626;23.380;2022-08-04T16:56:45;94369.84;;;27.76;35.50
39301;BME280;25019;42.626;23.380;2022-08-04T16:59:11;94432.34;;;28.01;34.83
39301;BME280;25019;42.626;23.380;2022-08-04T17:01:47;94419.75;;;27.77;35.28
39301;BME280;25019;42.626;23.380;2022-08-04T17:04:13;94436.84;;;27.74;36.07
39301;BME280;25019;42.626;23.380;2022-08-04T17:06:40;94440.97;;;27.67;37.28
39301;BME280;25019;42.626;23.380;2022-08-04T17:09:10;94399.91;;;27.25;37.07
39301;BME280;25019;42.626;23.380;2022-08-04T17:11:36;94438.16;;;27.28;37.77
39301;BME280;25019;42.626;23.380;2022-08-04T17:14:02;94439.22;;;27.07;37.77
39301;BME280;25019;42.626;23.380;2022-08-04T17:16:28;94441.25;;;26.95;38.03
39301;BME280;25019;42.626;23.380;2022-08-04T17:18:54;94451.63;;;26.89;38.65